createdAt,value
2017-10-03T00:00:50.360Z,15.58
2017-10-03T00:01:50.332Z,15.35
2017-10-03T00:02:50.651Z,15.17
2017-10-03T00:03:50.309Z,15.27
2017-10-03T00:04:50.611Z,15.09
2017-10-03T00:05:50.573Z,15.03
2017-10-03T00:06:50.239Z,15.07
2017-10-03T00:07:50.581Z,15.12
2017-10-03T00:08:50.529Z,14.96
2017-10-03T00:09:50.485Z,14.96
2017-10-03T00:10:50.480Z,15.04
2017-10-03T00:11:50.450Z,15.09
2017-10-03T00:12:50.440Z,14.94
2017-10-03T00:13:49.877Z,14.72
2017-10-03T00:14:50.409Z,14.79
2017-10-03T00:15:50.086Z,14.88
2017-10-03T00:16:50.367Z,14.91
2017-10-03T00:17:50.030Z,15.04
2017-10-03T00:18:50.342Z,15.07
2017-10-03T00:19:50.306Z,15.09
2017-10-03T00:20:50.291Z,14.98
2017-10-03T00:21:50.293Z,14.82
2017-10-03T00:22:49.969Z,14.94
2017-10-03T00:23:50.254Z,15.06
2017-10-03T00:24:50.242Z,14.91
2017-10-03T00:25:50.214Z,15.06
2017-10-03T00:26:49.893Z,15.02
2017-10-03T00:27:49.869Z,15.03
2017-10-03T00:28:50.150Z,15.06
2017-10-03T00:29:49.810Z,15.07
2017-10-03T00:30:49.810Z,15.12
2017-10-03T00:31:50.102Z,15.1
2017-10-03T00:32:50.099Z,14.8
2017-10-03T00:33:49.773Z,14.79
2017-10-03T00:34:50.048Z,14.75
2017-10-03T00:35:50.021Z,14.7
2017-10-03T00:36:50.008Z,14.79
2017-10-03T00:37:49.987Z,14.94
2017-10-03T00:38:49.648Z,14.82
2017-10-03T00:39:49.948Z,14.87
2017-10-03T00:40:49.926Z,15
2017-10-03T00:41:49.909Z,14.92
2017-10-03T00:42:49.899Z,14.98
2017-10-03T00:43:49.890Z,14.8
2017-10-03T00:44:49.859Z,14.88
2017-10-03T00:45:49.529Z,14.87
2017-10-03T00:46:49.819Z,14.62
2017-10-03T00:47:49.808Z,14.69
2017-10-03T00:48:49.773Z,14.58
2017-10-03T00:49:49.451Z,14.68
2017-10-03T00:50:49.433Z,14.69
2017-10-03T00:51:49.729Z,14.8
2017-10-03T00:52:49.398Z,14.72
2017-10-03T00:53:49.381Z,14.68
2017-10-03T00:54:49.359Z,14.57
2017-10-03T00:55:49.352Z,14.4
2017-10-03T00:56:49.639Z,14.62
2017-10-03T00:57:49.318Z,14.65
2017-10-03T00:58:49.601Z,14.73
2017-10-03T00:59:49.268Z,14.77
2017-10-03T01:00:49.249Z,14.7
2017-10-03T01:01:49.561Z,14.82
2017-10-03T01:02:49.214Z,14.88
2017-10-03T01:03:49.203Z,14.87
2017-10-03T01:04:49.198Z,14.82
2017-10-03T01:05:49.164Z,14.84
2017-10-03T01:06:49.449Z,14.87
2017-10-03T01:07:48.848Z,14.82
2017-10-03T01:08:48.795Z,14.88
2017-10-03T01:09:49.418Z,14.95
2017-10-03T01:10:49.378Z,14.96
2017-10-03T01:11:49.369Z,14.92
2017-10-03T01:12:49.342Z,15.07
2017-10-03T01:13:49.332Z,15.03
2017-10-03T01:14:49.298Z,14.91
2017-10-03T01:15:49.280Z,14.94
2017-10-03T01:16:48.969Z,15.16
2017-10-03T01:17:49.274Z,14.94
2017-10-03T01:18:49.234Z,14.95
2017-10-03T01:19:49.219Z,14.98
2017-10-03T01:20:48.901Z,15
2017-10-03T01:21:49.171Z,14.84
2017-10-03T01:22:49.171Z,14.91
2017-10-03T01:23:49.140Z,14.96
2017-10-03T01:24:49.120Z,14.89
2017-10-03T01:25:48.882Z,15.06
2017-10-03T01:26:48.777Z,15.06
2017-10-03T01:27:49.066Z,15.04
2017-10-03T01:28:49.070Z,15.16
2017-10-03T01:29:49.030Z,15.07
2017-10-03T01:30:48.705Z,15.07
2017-10-03T01:31:48.706Z,15.12
2017-10-03T01:32:48.685Z,15.06
2017-10-03T01:33:48.649Z,14.98
2017-10-03T01:34:48.630Z,15.03
2017-10-03T01:35:48.609Z,14.89
2017-10-03T01:36:48.279Z,14.82
2017-10-03T01:37:48.582Z,14.88
2017-10-03T01:38:48.879Z,14.82
2017-10-03T01:39:48.850Z,14.98
2017-10-03T01:40:48.530Z,14.91
2017-10-03T01:41:48.523Z,15
2017-10-03T01:42:48.160Z,14.92
2017-10-03T01:43:48.161Z,14.84
2017-10-03T01:44:48.457Z,14.84
2017-10-03T01:45:48.439Z,14.92
2017-10-03T01:46:48.408Z,14.96
2017-10-03T01:47:48.708Z,14.91
2017-10-03T01:48:48.674Z,14.95
2017-10-03T01:49:48.352Z,14.89
2017-10-03T01:50:48.024Z,15.03
2017-10-03T01:51:48.632Z,14.85
2017-10-03T01:52:48.612Z,14.88
2017-10-03T01:53:48.280Z,15.02
2017-10-03T01:54:47.946Z,14.95
2017-10-03T01:55:48.250Z,15.09
2017-10-03T01:56:48.534Z,15.1
2017-10-03T01:57:48.523Z,15.13
2017-10-03T01:58:47.880Z,15.12
2017-10-03T01:59:48.180Z,15.07
2017-10-03T02:00:48.459Z,15.16
2017-10-03T02:01:48.127Z,15.1
2017-10-03T02:02:48.122Z,15.07
2017-10-03T02:03:48.404Z,15.12
2017-10-03T02:04:48.077Z,15.07
2017-10-03T02:05:48.370Z,15.1
2017-10-03T02:06:48.053Z,15.13
2017-10-03T02:07:48.023Z,15.07
2017-10-03T02:08:48.022Z,15
2017-10-03T02:09:48.302Z,14.91
2017-10-03T02:10:47.979Z,14.96
2017-10-03T02:11:47.960Z,14.98
2017-10-03T02:12:48.260Z,15.09
2017-10-03T02:13:48.234Z,15
2017-10-03T02:14:47.900Z,14.82
2017-10-03T02:15:48.182Z,14.91
2017-10-03T02:16:47.877Z,14.89
2017-10-03T02:17:48.152Z,15.02
2017-10-03T02:18:48.136Z,14.96
2017-10-03T02:19:48.121Z,14.94
2017-10-03T02:20:48.109Z,15.04
2017-10-03T02:21:48.077Z,14.92
2017-10-03T02:22:47.747Z,14.92
2017-10-03T02:23:48.051Z,14.94
2017-10-03T02:24:48.021Z,14.68
2017-10-03T02:25:47.699Z,14.69
2017-10-03T02:26:47.682Z,14.72
2017-10-03T02:27:47.982Z,14.69
2017-10-03T02:28:47.640Z,14.79
2017-10-03T02:29:47.951Z,14.77
2017-10-03T02:30:47.920Z,14.79
2017-10-03T02:31:47.591Z,14.82
2017-10-03T02:32:47.559Z,14.8
2017-10-03T02:33:47.877Z,14.82
2017-10-03T02:34:47.861Z,14.89
2017-10-03T02:35:47.840Z,14.84
2017-10-03T02:36:47.500Z,14.82
2017-10-03T02:37:47.794Z,14.66
2017-10-03T02:38:47.472Z,14.66
2017-10-03T02:39:47.450Z,14.69
2017-10-03T02:40:47.418Z,14.58
2017-10-03T02:41:47.410Z,14.57
2017-10-03T02:42:47.069Z,14.5
2017-10-03T02:43:47.682Z,14.47
2017-10-03T02:44:47.340Z,14.39
2017-10-03T02:45:47.639Z,14.26
2017-10-03T02:46:46.994Z,14.3
2017-10-03T02:47:47.593Z,14.57
2017-10-03T02:48:47.589Z,14.6
2017-10-03T02:49:47.568Z,14.5
2017-10-03T02:50:47.550Z,14.48
2017-10-03T02:51:46.912Z,14.63
2017-10-03T02:52:47.506Z,14.47
2017-10-03T02:53:47.530Z,14.47
2017-10-03T02:54:47.511Z,14.46
2017-10-03T02:55:47.460Z,14.51
2017-10-03T02:56:47.440Z,14.5
2017-10-03T02:57:46.800Z,14.53
2017-10-03T02:58:47.401Z,14.5
2017-10-03T02:59:47.179Z,14.55
2017-10-03T03:00:47.050Z,14.63
2017-10-03T03:01:46.793Z,14.58
2017-10-03T03:02:47.011Z,14.51
2017-10-03T03:03:47.304Z,14.58
2017-10-03T03:04:47.299Z,14.57
2017-10-03T03:05:46.698Z,14.47
2017-10-03T03:06:46.937Z,14.5
2017-10-03T03:07:46.911Z,14.51
2017-10-03T03:08:46.910Z,14.48
2017-10-03T03:09:46.614Z,14.54
2017-10-03T03:10:46.930Z,14.58
2017-10-03T03:11:46.851Z,14.48
2017-10-03T03:12:46.529Z,14.17
2017-10-03T03:13:46.529Z,14.22
2017-10-03T03:14:46.849Z,14.17
2017-10-03T03:15:47.098Z,14.25
2017-10-03T03:16:46.761Z,14.21
2017-10-03T03:17:46.780Z,14.25
2017-10-03T03:18:46.718Z,14.26
2017-10-03T03:19:46.691Z,14.28
2017-10-03T03:20:46.699Z,14.13
2017-10-03T03:21:46.966Z,14.22
2017-10-03T03:22:46.663Z,14.07
2017-10-03T03:23:47.060Z,13.96
2017-10-03T03:24:46.911Z,14
2017-10-03T03:25:46.909Z,14.05
2017-10-03T03:26:47.009Z,14.21
2017-10-03T03:27:46.870Z,14.11
2017-10-03T03:28:46.549Z,14.21
2017-10-03T03:29:46.901Z,14.18
2017-10-03T03:30:46.494Z,14.39
2017-10-03T03:31:46.786Z,14.4
2017-10-03T03:32:46.452Z,14.35
2017-10-03T03:33:46.740Z,14.35
2017-10-03T03:34:46.539Z,14.21
2017-10-03T03:35:46.400Z,14.26
2017-10-03T03:36:46.750Z,14.33
2017-10-03T03:37:46.681Z,14.25
2017-10-03T03:38:46.661Z,14.17
2017-10-03T03:39:46.640Z,14.25
2017-10-03T03:40:45.990Z,14.2
2017-10-03T03:41:46.290Z,14.21
2017-10-03T03:42:46.581Z,14.14
2017-10-03T03:43:46.247Z,14.17
2017-10-03T03:44:46.551Z,14.2
2017-10-03T03:45:46.209Z,14.15
2017-10-03T03:46:46.623Z,14.17
2017-10-03T03:47:46.488Z,14.17
2017-10-03T03:48:46.571Z,14.29
2017-10-03T03:49:46.159Z,14.25
2017-10-03T03:50:46.463Z,14.17
2017-10-03T03:51:46.410Z,14.14
2017-10-03T03:52:46.430Z,14.21
2017-10-03T03:53:46.060Z,14.22
2017-10-03T03:54:46.350Z,14.22
2017-10-03T03:55:46.348Z,14.39
2017-10-03T03:56:45.999Z,14.28
2017-10-03T03:57:46.302Z,14.25
2017-10-03T03:58:45.963Z,14.17
2017-10-03T03:59:46.262Z,14.2
2017-10-03T04:00:46.254Z,14.08
2017-10-03T04:01:45.924Z,14.07
2017-10-03T04:02:46.209Z,14.11
2017-10-03T04:03:45.882Z,14.1
2017-10-03T04:04:46.170Z,14.14
2017-10-03T04:05:45.829Z,14.33
2017-10-03T04:06:45.819Z,14.17
2017-10-03T04:07:45.491Z,14.26
2017-10-03T04:08:45.779Z,14.33
2017-10-03T04:09:45.761Z,14.18
2017-10-03T04:10:46.059Z,14.17
2017-10-03T04:11:46.043Z,14.15
2017-10-03T04:12:45.401Z,14.14
2017-10-03T04:13:45.987Z,14.14
2017-10-03T04:14:45.671Z,14.14
2017-10-03T04:15:45.648Z,14.15
2017-10-03T04:16:45.640Z,14.18
2017-10-03T04:17:45.611Z,14.05
2017-10-03T04:18:45.902Z,14.1
2017-10-03T04:19:45.570Z,14.17
2017-10-03T04:20:45.557Z,14.14
2017-10-03T04:21:45.539Z,14.26
2017-10-03T04:22:45.520Z,14.13
2017-10-03T04:23:45.809Z,14.18
2017-10-03T04:24:45.481Z,14.2
2017-10-03T04:25:45.465Z,14.33
2017-10-03T04:26:45.443Z,14.22
2017-10-03T04:27:45.840Z,14.25
2017-10-03T04:28:45.411Z,14.21
2017-10-03T04:29:45.829Z,14.22
2017-10-03T04:30:45.685Z,14.15
2017-10-03T04:31:45.771Z,14.13
2017-10-03T04:32:45.649Z,14.17
2017-10-03T04:33:45.737Z,14.15
2017-10-03T04:34:45.608Z,14.25
2017-10-03T04:35:45.701Z,14.22
2017-10-03T04:36:45.258Z,14.21
2017-10-03T04:37:45.543Z,14.3
2017-10-03T04:38:45.212Z,14.2
2017-10-03T04:39:45.203Z,14.3
2017-10-03T04:40:45.480Z,14.29
2017-10-03T04:41:45.486Z,14.2
2017-10-03T04:42:45.461Z,14.15
2017-10-03T04:43:45.131Z,14.13
2017-10-03T04:44:45.451Z,14
2017-10-03T04:45:45.200Z,14.1
2017-10-03T04:46:45.071Z,14.18
2017-10-03T04:47:45.486Z,14.21
2017-10-03T04:48:45.362Z,14.22
2017-10-03T04:49:45.031Z,14.21
2017-10-03T04:50:45.000Z,14.17
2017-10-03T04:51:44.980Z,14.17
2017-10-03T04:52:44.648Z,14.14
2017-10-03T04:53:44.941Z,13.95
2017-10-03T04:54:45.251Z,13.99
2017-10-03T04:55:45.222Z,14.13
2017-10-03T04:56:44.890Z,14.14
2017-10-03T04:57:44.872Z,14.15
2017-10-03T04:58:44.944Z,14.14
2017-10-03T04:59:45.188Z,14.13
2017-10-03T05:00:45.120Z,14.22
2017-10-03T05:01:44.899Z,14.18
2017-10-03T05:02:44.903Z,14.32
2017-10-03T05:03:45.160Z,14.35
2017-10-03T05:04:45.126Z,14.29
2017-10-03T05:05:45.030Z,14.05
2017-10-03T05:06:44.380Z,14.02
2017-10-03T05:07:44.381Z,14.07
2017-10-03T05:08:44.349Z,14.08
2017-10-03T05:09:44.635Z,14.2
2017-10-03T05:10:44.715Z,14.14
2017-10-03T05:11:44.920Z,14.08
2017-10-03T05:12:44.580Z,14.17
2017-10-03T05:13:44.559Z,14.14
2017-10-03T05:14:44.944Z,14.15
2017-10-03T05:15:44.220Z,14.18
2017-10-03T05:16:44.824Z,14.05
2017-10-03T05:17:44.479Z,14.11
2017-10-03T05:18:44.471Z,14.02
2017-10-03T05:19:44.778Z,14
2017-10-03T05:20:44.468Z,14.08
2017-10-03T05:21:44.729Z,14.14
2017-10-03T05:22:44.400Z,14.08
2017-10-03T05:23:44.366Z,14.11
2017-10-03T05:24:44.519Z,14.1
2017-10-03T05:25:44.640Z,13.93
2017-10-03T05:26:44.016Z,14.07
2017-10-03T05:27:44.289Z,13.93
2017-10-03T05:28:44.292Z,13.93
2017-10-03T05:29:44.644Z,13.93
2017-10-03T05:30:44.299Z,13.99
2017-10-03T05:31:44.550Z,14.08
2017-10-03T05:32:44.529Z,14.17
2017-10-03T05:33:44.499Z,14.02
2017-10-03T05:34:44.470Z,14.21
2017-10-03T05:35:44.150Z,14.14
2017-10-03T05:36:44.130Z,14.14
2017-10-03T05:37:44.418Z,14.18
2017-10-03T05:38:44.092Z,14.18
2017-10-03T05:39:44.385Z,14.17
2017-10-03T05:40:44.369Z,14.21
2017-10-03T05:41:44.040Z,14.17
2017-10-03T05:42:44.316Z,14
2017-10-03T05:43:44.301Z,14.03
2017-10-03T05:44:44.299Z,14.15
2017-10-03T05:45:43.958Z,14.21
2017-10-03T05:46:44.249Z,14.2
2017-10-03T05:47:43.608Z,14.2
2017-10-03T05:48:43.906Z,14.2
2017-10-03T05:49:43.898Z,14.18
2017-10-03T05:50:44.161Z,14.08
2017-10-03T05:51:43.860Z,14.11
2017-10-03T05:52:43.830Z,14.13
2017-10-03T05:53:43.810Z,14.18
2017-10-03T05:54:43.789Z,14.15
2017-10-03T05:55:43.457Z,14.2
2017-10-03T05:56:43.765Z,14.21
2017-10-03T05:57:44.049Z,14.14
2017-10-03T05:58:44.031Z,14.02
2017-10-03T05:59:44.024Z,14.03
2017-10-03T06:00:43.678Z,14.02
2017-10-03T06:01:44.037Z,14.11
2017-10-03T06:02:43.342Z,14.15
2017-10-03T06:03:43.623Z,14.18
2017-10-03T06:04:43.291Z,14.13
2017-10-03T06:05:43.626Z,14.08
2017-10-03T06:06:43.568Z,14.11
2017-10-03T06:07:43.654Z,14.21
2017-10-03T06:08:43.826Z,14.08
2017-10-03T06:09:43.502Z,14.13
2017-10-03T06:10:43.809Z,14.13
2017-10-03T06:11:43.841Z,14.17
2017-10-03T06:12:43.750Z,14.05
2017-10-03T06:13:43.132Z,14.07
2017-10-03T06:14:43.421Z,13.99
2017-10-03T06:15:43.731Z,13.96
2017-10-03T06:16:43.688Z,14.1
2017-10-03T06:17:43.439Z,14.13
2017-10-03T06:18:43.337Z,14.2
2017-10-03T06:19:43.641Z,14.18
2017-10-03T06:20:43.301Z,14.29
2017-10-03T06:21:43.675Z,14.35
2017-10-03T06:22:43.637Z,14.21
2017-10-03T06:23:43.603Z,14.28
2017-10-03T06:24:43.620Z,14.29
2017-10-03T06:25:43.219Z,14.26
2017-10-03T06:26:43.519Z,14.38
2017-10-03T06:27:43.479Z,14.35
2017-10-03T06:28:43.190Z,14.4
2017-10-03T06:29:43.457Z,14.58
2017-10-03T06:30:43.130Z,14.89
2017-10-03T06:31:43.150Z,15.21
2017-10-03T06:32:43.084Z,15.29
2017-10-03T06:33:43.063Z,15.27
2017-10-03T06:34:43.357Z,15.5
2017-10-03T06:35:43.100Z,15.95
2017-10-03T06:36:43.314Z,16.04
2017-10-03T06:37:43.370Z,16.45
2017-10-03T06:38:42.669Z,16.78
2017-10-03T06:39:43.273Z,17.22
2017-10-03T06:40:43.256Z,17.49
2017-10-03T06:41:43.319Z,17.51
2017-10-03T06:42:43.241Z,17.49
2017-10-03T06:43:43.257Z,17.48
2017-10-03T06:44:43.249Z,17.44
2017-10-03T06:45:43.282Z,17.54
2017-10-03T06:46:43.160Z,17.64
2017-10-03T06:47:43.163Z,17.93
2017-10-03T06:48:42.498Z,17.67
2017-10-03T06:49:42.790Z,17.15
2017-10-03T06:50:42.854Z,17.03
2017-10-03T06:51:43.091Z,17.05
2017-10-03T06:52:43.132Z,17.22
2017-10-03T06:53:43.061Z,17.58
2017-10-03T06:54:43.055Z,18.01
2017-10-03T06:55:42.734Z,17.92
2017-10-03T06:56:42.700Z,17.96
2017-10-03T06:57:42.682Z,18.2
2017-10-03T06:58:42.984Z,17.93
2017-10-03T06:59:42.629Z,18.11
2017-10-03T07:00:42.629Z,18.1
2017-10-03T07:01:42.619Z,18.33
2017-10-03T07:02:42.920Z,18.8
2017-10-03T07:03:42.895Z,18.52
2017-10-03T07:04:42.879Z,18.93
2017-10-03T07:05:42.559Z,19.06
2017-10-03T07:06:42.868Z,19.38
2017-10-03T07:07:42.924Z,19.07
2017-10-03T07:08:42.516Z,19.3
2017-10-03T07:09:42.830Z,19.18
2017-10-03T07:10:42.801Z,18.85
2017-10-03T07:11:42.865Z,19.06
2017-10-03T07:12:42.760Z,19.06
2017-10-03T07:13:42.138Z,18.52
2017-10-03T07:14:42.738Z,18.19
2017-10-03T07:15:42.739Z,18.14
2017-10-03T07:16:42.742Z,17.72
2017-10-03T07:17:42.712Z,17.54
2017-10-03T07:18:42.700Z,17.3
2017-10-03T07:19:42.716Z,17.33
2017-10-03T07:20:42.356Z,17.44
2017-10-03T07:21:42.660Z,17.42
2017-10-03T07:22:42.019Z,17.33
2017-10-03T07:23:42.632Z,17.11
2017-10-03T07:24:42.632Z,17.03
2017-10-03T07:25:42.610Z,17.08
2017-10-03T07:26:42.580Z,17.01
2017-10-03T07:27:42.557Z,17.18
2017-10-03T07:28:41.929Z,17.7
2017-10-03T07:29:41.920Z,18
2017-10-03T07:30:42.536Z,18.42
2017-10-03T07:31:41.893Z,17.8
2017-10-03T07:32:42.489Z,17.93
2017-10-03T07:33:42.481Z,17.8
2017-10-03T07:34:42.459Z,17.96
2017-10-03T07:35:42.449Z,18.02
2017-10-03T07:36:42.129Z,17.72
2017-10-03T07:37:42.427Z,17.65
2017-10-03T07:38:42.396Z,17.49
2017-10-03T07:39:42.398Z,17.8
2017-10-03T07:40:42.078Z,17.56
2017-10-03T07:41:42.361Z,17.46
2017-10-03T07:42:42.362Z,17.33
2017-10-03T07:43:42.058Z,17.29
2017-10-03T07:44:42.351Z,17.15
2017-10-03T07:45:42.009Z,17.08
2017-10-03T07:46:42.329Z,17.15
2017-10-03T07:47:41.979Z,17.06
2017-10-03T07:48:42.282Z,17.12
2017-10-03T07:49:42.262Z,17.08
2017-10-03T07:50:41.932Z,17.09
2017-10-03T07:51:42.239Z,16.54
2017-10-03T07:52:41.931Z,16.57
2017-10-03T07:53:42.204Z,16.48
2017-10-03T07:54:42.179Z,16.53
2017-10-03T07:55:42.174Z,16.57
2017-10-03T07:56:42.169Z,16.61
2017-10-03T07:57:42.169Z,16.63
2017-10-03T07:58:42.158Z,16.61
2017-10-03T07:59:42.124Z,16.6
2017-10-03T08:00:42.124Z,16.64
2017-10-03T08:01:42.086Z,16.56
2017-10-03T08:02:41.761Z,16.58
2017-10-03T08:03:42.055Z,16.57
2017-10-03T08:04:42.099Z,16.36
2017-10-03T08:05:41.719Z,16.36
2017-10-03T08:06:42.019Z,16.32
2017-10-03T08:07:42.004Z,16.34
2017-10-03T08:08:41.913Z,16.24
2017-10-03T08:09:41.637Z,16.17
2017-10-03T08:10:41.955Z,16.05
2017-10-03T08:11:41.930Z,16.16
2017-10-03T08:12:41.969Z,16.05
2017-10-03T08:13:41.909Z,15.92
2017-10-03T08:14:41.586Z,16.04
2017-10-03T08:15:41.560Z,16.12
2017-10-03T08:16:41.541Z,16.07
2017-10-03T08:17:41.840Z,16.05
2017-10-03T08:18:41.511Z,15.98
2017-10-03T08:19:41.805Z,16.01
2017-10-03T08:20:41.577Z,15.98
2017-10-03T08:21:41.140Z,16.02
2017-10-03T08:22:41.832Z,16
2017-10-03T08:23:41.739Z,16.02
2017-10-03T08:24:41.714Z,15.83
2017-10-03T08:25:41.740Z,15.97
2017-10-03T08:26:41.678Z,15.92
2017-10-03T08:27:41.779Z,16.07
2017-10-03T08:28:41.750Z,16.2
2017-10-03T08:29:41.315Z,16.26
2017-10-03T08:30:41.641Z,16.15
2017-10-03T08:31:41.636Z,16.08
2017-10-03T08:32:41.581Z,16.12
2017-10-03T08:33:41.630Z,16.21
2017-10-03T08:34:41.232Z,16.26
2017-10-03T08:35:41.507Z,16.26
2017-10-03T08:36:41.563Z,16.15
2017-10-03T08:37:41.193Z,16.28
2017-10-03T08:38:41.249Z,16.32
2017-10-03T08:39:41.150Z,16.32
2017-10-03T08:40:41.138Z,16.38
2017-10-03T08:41:41.437Z,16.34
2017-10-03T08:42:40.846Z,16.32
2017-10-03T08:43:41.400Z,16.17
2017-10-03T08:44:41.479Z,16.15
2017-10-03T08:45:41.411Z,16.23
2017-10-03T08:46:41.409Z,16.31
2017-10-03T08:47:41.335Z,16.48
2017-10-03T08:48:41.305Z,16.75
2017-10-03T08:49:41.311Z,16.69
2017-10-03T08:50:41.294Z,16.78
2017-10-03T08:51:40.940Z,16.96
2017-10-03T08:52:41.309Z,17.16
2017-10-03T08:53:40.936Z,17.49
2017-10-03T08:54:41.299Z,17.98
2017-10-03T08:55:41.229Z,18.08
2017-10-03T08:56:41.181Z,18.1
2017-10-03T08:57:41.354Z,18
2017-10-03T08:58:40.839Z,18.02
2017-10-03T08:59:40.920Z,17.95
2017-10-03T09:00:40.812Z,17.89
2017-10-03T09:01:41.219Z,17.9
2017-10-03T09:02:41.087Z,17.78
2017-10-03T09:03:41.152Z,17.67
2017-10-03T09:04:41.108Z,17.72
2017-10-03T09:05:41.149Z,17.93
2017-10-03T09:06:41.029Z,18
2017-10-03T09:07:40.716Z,17.86
2017-10-03T09:08:40.697Z,17.7
2017-10-03T09:09:40.695Z,17.67
2017-10-03T09:10:40.990Z,17.58
2017-10-03T09:11:40.696Z,17.46
2017-10-03T09:12:40.961Z,17.42
2017-10-03T09:13:40.969Z,17.19
2017-10-03T09:14:40.980Z,17.16
2017-10-03T09:15:40.623Z,17.22
2017-10-03T09:16:40.911Z,17.46
2017-10-03T09:17:40.939Z,17.56
2017-10-03T09:18:40.922Z,17.46
2017-10-03T09:19:40.901Z,17.62
2017-10-03T09:20:40.891Z,17.56
2017-10-03T09:21:40.888Z,17.77
2017-10-03T09:22:40.822Z,18.14
2017-10-03T09:23:40.819Z,18.42
2017-10-03T09:24:40.780Z,18.52
2017-10-03T09:25:40.468Z,18.82
2017-10-03T09:26:40.740Z,18.52
2017-10-03T09:27:40.747Z,18.41
2017-10-03T09:28:40.420Z,18.44
2017-10-03T09:29:40.704Z,18.75
2017-10-03T09:30:40.725Z,18.73
2017-10-03T09:31:40.716Z,19.04
2017-10-03T09:32:40.371Z,19.41
2017-10-03T09:33:40.658Z,19.74
2017-10-03T09:34:40.669Z,20.22
2017-10-03T09:35:40.378Z,20.38
2017-10-03T09:36:40.632Z,20.48
2017-10-03T09:37:40.601Z,20.52
2017-10-03T09:38:40.285Z,20.31
2017-10-03T09:39:40.595Z,20.33
2017-10-03T09:40:40.271Z,20.35
2017-10-03T09:41:40.560Z,20.4
2017-10-03T09:42:40.230Z,20.43
2017-10-03T09:43:40.552Z,20.35
2017-10-03T09:44:40.529Z,20.36
2017-10-03T09:45:40.533Z,20.41
2017-10-03T09:46:40.508Z,20.49
2017-10-03T09:47:40.512Z,20.64
2017-10-03T09:48:40.476Z,20.84
2017-10-03T09:49:40.459Z,21.17
2017-10-03T09:50:40.468Z,21.34
2017-10-03T09:51:40.456Z,21.28
2017-10-03T09:52:40.159Z,21.15
2017-10-03T09:53:40.430Z,20.92
2017-10-03T09:54:40.107Z,20.7
2017-10-03T09:55:40.097Z,20.47
2017-10-03T09:56:40.097Z,20.22
2017-10-03T09:57:40.418Z,20.06
2017-10-03T09:58:40.380Z,19.8
2017-10-03T09:59:40.422Z,20.33
2017-10-03T10:00:40.038Z,20.58
2017-10-03T10:01:40.354Z,21.06
2017-10-03T10:02:40.338Z,21.25
2017-10-03T10:03:40.381Z,21.07
2017-10-03T10:04:40.319Z,20.49
2017-10-03T10:05:40.358Z,20.23
2017-10-03T10:06:40.287Z,19.8
2017-10-03T10:07:39.987Z,19.78
2017-10-03T10:08:40.279Z,20.38
2017-10-03T10:09:40.267Z,20.84
2017-10-03T10:10:40.237Z,21.09
2017-10-03T10:11:40.258Z,21.36
2017-10-03T10:12:40.238Z,21.59
2017-10-03T10:13:40.293Z,21.83
2017-10-03T10:14:39.586Z,22.21
2017-10-03T10:15:40.187Z,22.48
2017-10-03T10:16:40.178Z,22.82
2017-10-03T10:17:39.871Z,22.66
2017-10-03T10:18:40.162Z,22.12
2017-10-03T10:19:40.146Z,21.77
2017-10-03T10:20:39.838Z,21.36
2017-10-03T10:21:40.137Z,21
2017-10-03T10:22:39.810Z,20.55
2017-10-03T10:23:39.819Z,20.44
2017-10-03T10:24:39.788Z,20.47
2017-10-03T10:25:39.777Z,20.06
2017-10-03T10:26:40.071Z,19.58
2017-10-03T10:27:40.062Z,19.28
2017-10-03T10:28:40.060Z,19.22
2017-10-03T10:29:40.058Z,19.22
2017-10-03T10:30:40.040Z,19.21
2017-10-03T10:31:39.697Z,19.12
2017-10-03T10:32:39.695Z,19.22
2017-10-03T10:33:40.008Z,19.38
2017-10-03T10:34:39.655Z,19.52
2017-10-03T10:35:39.982Z,19.49
2017-10-03T10:36:39.957Z,19.34
2017-10-03T10:37:39.955Z,19.33
2017-10-03T10:38:39.704Z,19.08
2017-10-03T10:39:39.908Z,18.96
2017-10-03T10:40:39.640Z,19.06
2017-10-03T10:41:39.878Z,18.93
2017-10-03T10:42:39.569Z,18.87
2017-10-03T10:43:39.537Z,18.78
2017-10-03T10:44:39.841Z,18.88
2017-10-03T10:45:39.576Z,19.02
2017-10-03T10:46:39.831Z,19.23
2017-10-03T10:47:39.790Z,19.15
2017-10-03T10:48:39.783Z,19.12
2017-10-03T10:49:39.760Z,19.16
2017-10-03T10:50:39.762Z,19.08
2017-10-03T10:51:39.731Z,19.07
2017-10-03T10:52:39.735Z,19.14
2017-10-03T10:53:39.710Z,19.15
2017-10-03T10:54:39.501Z,19.16
2017-10-03T10:55:39.060Z,19.23
2017-10-03T10:56:39.382Z,19.49
2017-10-03T10:57:39.750Z,20.06
2017-10-03T10:58:39.801Z,20.47
2017-10-03T10:59:39.383Z,20.48
2017-10-03T11:00:39.681Z,20.82
2017-10-03T11:01:39.350Z,21.17
2017-10-03T11:02:39.286Z,21.19
2017-10-03T11:03:39.590Z,21.21
2017-10-03T11:04:39.578Z,21.13
2017-10-03T11:05:39.256Z,20.79
2017-10-03T11:06:39.653Z,20.87
2017-10-03T11:07:39.543Z,21.19
2017-10-03T11:08:38.890Z,21.41
2017-10-03T11:09:39.542Z,21.56
2017-10-03T11:10:39.496Z,21.83
2017-10-03T11:11:39.573Z,21.84
2017-10-03T11:12:39.461Z,21.96
2017-10-03T11:13:39.511Z,22.22
2017-10-03T11:14:39.516Z,22.42
2017-10-03T11:15:39.444Z,22.54
2017-10-03T11:16:39.431Z,22.47
2017-10-03T11:17:39.079Z,22.55
2017-10-03T11:18:39.473Z,22.4
2017-10-03T11:19:39.390Z,21.97
2017-10-03T11:20:39.043Z,21.74
2017-10-03T11:21:39.380Z,21.58
2017-10-03T11:22:39.030Z,21.39
2017-10-03T11:23:39.343Z,21.21
2017-10-03T11:24:39.011Z,21.09
2017-10-03T11:25:39.402Z,20.64
2017-10-03T11:26:39.323Z,20.51
2017-10-03T11:27:38.964Z,20.51
2017-10-03T11:28:38.961Z,20.54
2017-10-03T11:29:38.632Z,20.92
2017-10-03T11:30:39.230Z,21.44
2017-10-03T11:31:39.223Z,21.7
2017-10-03T11:32:39.203Z,21.95
2017-10-03T11:33:39.214Z,22.02
2017-10-03T11:34:39.184Z,22.12
2017-10-03T11:35:38.860Z,22.37
2017-10-03T11:36:39.162Z,22.52
2017-10-03T11:37:41.660Z,22.51
2017-10-03T11:38:39.147Z,22.8
2017-10-03T11:39:38.813Z,22.91
2017-10-03T11:40:39.131Z,22.87
2017-10-03T11:41:38.784Z,22.91
2017-10-03T11:42:39.082Z,23.03
2017-10-03T11:43:39.072Z,23.27
2017-10-03T11:44:39.063Z,23.02
2017-10-03T11:45:39.049Z,22.97
2017-10-03T11:46:39.047Z,23.06
2017-10-03T11:47:39.023Z,22.98
2017-10-03T11:48:39.016Z,22.5
2017-10-03T11:49:38.998Z,21.99
2017-10-03T11:50:38.704Z,21.68
2017-10-03T11:51:38.677Z,21.64
2017-10-03T11:52:38.663Z,21.79
2017-10-03T11:53:38.671Z,21.77
2017-10-03T11:54:38.636Z,22.06
2017-10-03T11:55:38.945Z,22.48
2017-10-03T11:56:38.612Z,22.5
2017-10-03T11:57:38.922Z,22.79
2017-10-03T11:58:38.882Z,22.82
2017-10-03T11:59:38.575Z,22.67
2017-10-03T12:00:38.896Z,22.48
2017-10-03T12:01:38.898Z,22.11
2017-10-03T12:02:38.849Z,22.12
2017-10-03T12:03:38.834Z,22.33
2017-10-03T12:04:38.524Z,22.27
2017-10-03T12:05:38.827Z,22.11
2017-10-03T12:06:38.822Z,21.84
2017-10-03T12:07:38.801Z,21.65
2017-10-03T12:08:38.781Z,21.46
2017-10-03T12:09:38.760Z,21.07
2017-10-03T12:10:38.761Z,21
2017-10-03T12:11:38.440Z,20.91
2017-10-03T12:12:38.729Z,20.48
2017-10-03T12:13:38.406Z,20.22
2017-10-03T12:14:38.718Z,20.06
2017-10-03T12:15:38.693Z,19.91
2017-10-03T12:16:38.690Z,19.89
2017-10-03T12:17:38.679Z,19.51
2017-10-03T12:18:38.653Z,19.55
2017-10-03T12:19:38.347Z,19.55
2017-10-03T12:20:38.622Z,19.43
2017-10-03T12:21:38.329Z,19.49
2017-10-03T12:22:38.634Z,19.69
2017-10-03T12:23:38.640Z,20.01
2017-10-03T12:24:38.577Z,20.18
2017-10-03T12:25:38.363Z,19.96
2017-10-03T12:26:38.539Z,20.33
2017-10-03T12:27:38.282Z,20.63
2017-10-03T12:28:38.522Z,20.62
2017-10-03T12:29:38.617Z,20.67
2017-10-03T12:30:38.204Z,21.09
2017-10-03T12:31:38.278Z,21.26
2017-10-03T12:32:38.485Z,21.19
2017-10-03T12:33:38.199Z,21.31
2017-10-03T12:34:38.437Z,21.52
2017-10-03T12:35:38.539Z,21.62
2017-10-03T12:36:38.447Z,21.46
2017-10-03T12:37:38.407Z,21.54
2017-10-03T12:38:38.413Z,21.8
2017-10-03T12:39:38.420Z,21.79
2017-10-03T12:40:38.367Z,21.7
2017-10-03T12:41:38.362Z,21.71
2017-10-03T12:42:38.020Z,21.95
2017-10-03T12:43:38.350Z,22.2
2017-10-03T12:44:38.320Z,22.36
2017-10-03T12:45:38.392Z,22.65
2017-10-03T12:46:38.305Z,22.79
2017-10-03T12:47:38.284Z,22.79
2017-10-03T12:48:38.268Z,22.79
2017-10-03T12:49:38.283Z,22.76
2017-10-03T12:50:38.258Z,22.42
2017-10-03T12:51:38.255Z,22.39
2017-10-03T12:52:38.226Z,22.37
2017-10-03T12:53:38.202Z,22.55
2017-10-03T12:54:37.881Z,22.61
2017-10-03T12:55:38.193Z,22.59
2017-10-03T12:56:37.852Z,22.54